sensor_id;sensor_type;location;lat;lon;timestamp;P1;durP1;ratioP1;P2;durP2;ratioP2
55633;SDS011;41504;53.162;6.788;2023-04-01T00:00:57;6.72;;;4.38;;
55633;SDS011;41504;53.162;6.788;2023-04-01T00:03:24;6.55;;;4.50;;
55633;SDS011;41504;53.162;6.788;2023-04-01T00:05:52;7.78;;;4.70;;
55633;SDS011;41504;53.162;6.788;2023-04-01T00:08:18;8.18;;;4.90;;
55633;SDS011;41504;53.162;6.788;2023-04-01T00:10:44;7.40;;;4.90;;
55633;SDS011;41504;53.162;6.788;2023-04-01T00:13:10;7.07;;;4.60;;
55633;SDS011;41504;53.162;6.788;2023-04-01T00:15:36;8.40;;;5.28;;
55633;SDS011;41504;53.162;6.788;2023-04-01T00:18:02;7.85;;;5.03;;
55633;SDS011;41504;53.162;6.788;2023-04-01T00:20:28;7.35;;;5.28;;
55633;SDS011;41504;53.162;6.788;2023-04-01T00:22:54;8.10;;;5.63;;
55633;SDS011;41504;53.162;6.788;2023-04-01T00:25:24;8.93;;;5.53;;
55633;SDS011;41504;53.162;6.788;2023-04-01T00:27:50;8.13;;;5.45;;
55633;SDS011;41504;53.162;6.788;2023-04-01T00:30:16;9.55;;;5.78;;
55633;SDS011;41504;53.162;6.788;2023-04-01T00:32:41;9.18;;;6.07;;
55633;SDS011;41504;53.162;6.788;2023-04-01T00:35:07;9.90;;;5.78;;
55633;SDS011;41504;53.162;6.788;2023-04-01T00:37:36;7.90;;;5.57;;
55633;SDS011;41504;53.162;6.788;2023-04-01T00:40:06;9.00;;;5.32;;
55633;SDS011;41504;53.162;6.788;2023-04-01T00:42:33;9.55;;;5.60;;
55633;SDS011;41504;53.162;6.788;2023-04-01T00:45:21;10.05;;;5.63;;
55633;SDS011;41504;53.162;6.788;2023-04-01T00:47:53;9.48;;;5.63;;
55633;SDS011;41504;53.162;6.788;2023-04-01T00:50:19;9.90;;;6.07;;
55633;SDS011;41504;53.162;6.788;2023-04-01T00:52:47;9.38;;;6.20;;
55633;SDS011;41504;53.162;6.788;2023-04-01T00:55:13;8.85;;;5.65;;
55633;SDS011;41504;53.162;6.788;2023-04-01T00:57:41;9.63;;;6.18;;
55633;SDS011;41504;53.162;6.788;2023-04-01T01:00:09;7.85;;;5.72;;
55633;SDS011;41504;53.162;6.788;2023-04-01T01:02:38;8.93;;;5.57;;
55633;SDS011;41504;53.162;6.788;2023-04-01T01:05:07;10.63;;;5.82;;
55633;SDS011;41504;53.162;6.788;2023-04-01T01:13:04;9.45;;;6.25;;
55633;SDS011;41504;53.162;6.788;2023-04-01T01:15:40;8.52;;;6.03;;
55633;SDS011;41504;53.162;6.788;2023-04-01T01:26:36;9.02;;;6.00;;
55633;SDS011;41504;53.162;6.788;2023-04-01T01:34:33;12.07;;;6.05;;
55633;SDS011;41504;53.162;6.788;2023-04-01T01:37:10;9.80;;;6.15;;
55633;SDS011;41504;53.162;6.788;2023-04-01T01:39:40;9.07;;;5.65;;
55633;SDS011;41504;53.162;6.788;2023-04-01T01:42:09;8.75;;;5.93;;
55633;SDS011;41504;53.162;6.788;2023-04-01T01:44:40;9.13;;;5.60;;
55633;SDS011;41504;53.162;6.788;2023-04-01T01:47:09;8.00;;;5.60;;
55633;SDS011;41504;53.162;6.788;2023-04-01T01:49:36;8.48;;;6.15;;
55633;SDS011;41504;53.162;6.788;2023-04-01T01:52:03;9.45;;;6.28;;
55633;SDS011;41504;53.162;6.788;2023-04-01T01:54:28;9.18;;;5.60;;
55633;SDS011;41504;53.162;6.788;2023-04-01T01:57:04;9.43;;;6.15;;
55633;SDS011;41504;53.162;6.788;2023-04-01T01:59:34;9.18;;;5.75;;
55633;SDS011;41504;53.162;6.788;2023-04-01T02:02:02;9.13;;;6.45;;
55633;SDS011;41504;53.162;6.788;2023-04-01T02:04:34;12.07;;;6.68;;
55633;SDS011;41504;53.162;6.788;2023-04-01T02:07:04;12.52;;;6.82;;
55633;SDS011;41504;53.162;6.788;2023-04-01T02:09:43;10.32;;;6.68;;
55633;SDS011;41504;53.162;6.788;2023-04-01T02:12:10;11.15;;;7.40;;
55633;SDS011;41504;53.162;6.788;2023-04-01T02:14:43;9.65;;;7.28;;
55633;SDS011;41504;53.162;6.788;2023-04-01T02:17:14;9.63;;;7.13;;
55633;SDS011;41504;53.162;6.788;2023-04-01T02:19:53;8.60;;;6.45;;
55633;SDS011;41504;53.162;6.788;2023-04-01T02:22:26;11.10;;;7.40;;
55633;SDS011;41504;53.162;6.788;2023-04-01T02:24:57;10.52;;;7.18;;
55633;SDS011;41504;53.162;6.788;2023-04-01T02:27:24;10.70;;;7.03;;
55633;SDS011;41504;53.162;6.788;2023-04-01T02:29:51;9.68;;;6.97;;
55633;SDS011;41504;53.162;6.788;2023-04-01T02:32:18;10.50;;;7.15;;
55633;SDS011;41504;53.162;6.788;2023-04-01T02:34:45;9.82;;;7.43;;
55633;SDS011;41504;53.162;6.788;2023-04-01T02:37:12;10.05;;;6.93;;
55633;SDS011;41504;53.162;6.788;2023-04-01T02:39:39;10.25;;;7.18;;
55633;SDS011;41504;53.162;6.788;2023-04-01T02:42:05;9.80;;;7.13;;
55633;SDS011;41504;53.162;6.788;2023-04-01T02:44:31;8.32;;;6.03;;
55633;SDS011;41504;53.162;6.788;2023-04-01T02:46:57;10.13;;;6.63;;
55633;SDS011;41504;53.162;6.788;2023-04-01T02:49:22;9.90;;;7.20;;
55633;SDS011;41504;53.162;6.788;2023-04-01T02:51:48;9.73;;;6.90;;
55633;SDS011;41504;53.162;6.788;2023-04-01T02:54:14;10.73;;;7.10;;
55633;SDS011;41504;53.162;6.788;2023-04-01T02:56:40;10.13;;;7.40;;
55633;SDS011;41504;53.162;6.788;2023-04-01T02:59:05;10.55;;;7.65;;
55633;SDS011;41504;53.162;6.788;2023-04-01T03:01:31;10.30;;;7.38;;
55633;SDS011;41504;53.162;6.788;2023-04-01T03:03:57;11.82;;;7.75;;
55633;SDS011;41504;53.162;6.788;2023-04-01T03:06:22;10.75;;;7.57;;
55633;SDS011;41504;53.162;6.788;2023-04-01T03:08:48;11.27;;;7.40;;
55633;SDS011;41504;53.162;6.788;2023-04-01T03:11:14;11.95;;;7.82;;
55633;SDS011;41504;53.162;6.788;2023-04-01T03:13:40;10.45;;;7.30;;
55633;SDS011;41504;53.162;6.788;2023-04-01T03:16:05;11.60;;;7.53;;
55633;SDS011;41504;53.162;6.788;2023-04-01T03:18:31;11.63;;;8.32;;
55633;SDS011;41504;53.162;6.788;2023-04-01T03:20:57;13.02;;;8.38;;
55633;SDS011;41504;53.162;6.788;2023-04-01T03:23:36;11.93;;;8.18;;
55633;SDS011;41504;53.162;6.788;2023-04-01T03:26:02;11.68;;;8.32;;
55633;SDS011;41504;53.162;6.788;2023-04-01T03:28:27;12.50;;;8.18;;
55633;SDS011;41504;53.162;6.788;2023-04-01T03:30:53;12.95;;;9.10;;
55633;SDS011;41504;53.162;6.788;2023-04-01T03:33:19;11.15;;;8.57;;
55633;SDS011;41504;53.162;6.788;2023-04-01T03:35:44;13.05;;;9.15;;
55633;SDS011;41504;53.162;6.788;2023-04-01T03:38:10;14.07;;;9.57;;
55633;SDS011;41504;53.162;6.788;2023-04-01T03:40:36;13.15;;;9.65;;
55633;SDS011;41504;53.162;6.788;2023-04-01T03:43:03;12.45;;;9.05;;
55633;SDS011;41504;53.162;6.788;2023-04-01T03:45:33;12.65;;;9.55;;
55633;SDS011;41504;53.162;6.788;2023-04-01T03:47:59;12.98;;;9.30;;
55633;SDS011;41504;53.162;6.788;2023-04-01T03:50:24;12.88;;;9.30;;
55633;SDS011;41504;53.162;6.788;2023-04-01T03:52:51;13.00;;;9.35;;
55633;SDS011;41504;53.162;6.788;2023-04-01T03:55:16;13.30;;;9.40;;
55633;SDS011;41504;53.162;6.788;2023-04-01T03:57:43;14.05;;;10.45;;
55633;SDS011;41504;53.162;6.788;2023-04-01T04:00:09;14.15;;;10.43;;
55633;SDS011;41504;53.162;6.788;2023-04-01T04:02:35;14.52;;;10.18;;
55633;SDS011;41504;53.162;6.788;2023-04-01T04:05:01;14.93;;;10.52;;
55633;SDS011;41504;53.162;6.788;2023-04-01T04:07:27;14.50;;;10.68;;
55633;SDS011;41504;53.162;6.788;2023-04-01T04:09:53;13.57;;;10.30;;
55633;SDS011;41504;53.162;6.788;2023-04-01T04:12:18;14.48;;;10.50;;
55633;SDS011;41504;53.162;6.788;2023-04-01T04:14:44;14.60;;;10.57;;
55633;SDS011;41504;53.162;6.788;2023-04-01T04:17:11;14.38;;;11.00;;
55633;SDS011;41504;53.162;6.788;2023-04-01T04:19:41;13.13;;;10.40;;
55633;SDS011;41504;53.162;6.788;2023-04-01T04:22:07;14.27;;;10.63;;
55633;SDS011;41504;53.162;6.788;2023-04-01T04:24:36;14.57;;;10.57;;
55633;SDS011;41504;53.162;6.788;2023-04-01T04:27:02;15.52;;;10.68;;
55633;SDS011;41504;53.162;6.788;2023-04-01T04:29:29;13.43;;;9.80;;
55633;SDS011;41504;53.162;6.788;2023-04-01T04:31:55;11.95;;;9.98;;
55633;SDS011;41504;53.162;6.788;2023-04-01T04:34:21;12.70;;;9.75;;
55633;SDS011;41504;53.162;6.788;2023-04-01T04:36:47;12.77;;;9.93;;
55633;SDS011;41504;53.162;6.788;2023-04-01T04:39:14;12.98;;;10.07;;
55633;SDS011;41504;53.162;6.788;2023-04-01T04:41:40;15.30;;;10.10;;
55633;SDS011;41504;53.162;6.788;2023-04-01T04:44:06;13.68;;;10.02;;
55633;SDS011;41504;53.162;6.788;2023-04-01T04:46:32;12.82;;;9.75;;
55633;SDS011;41504;53.162;6.788;2023-04-01T04:48:58;14.02;;;9.15;;
55633;SDS011;41504;53.162;6.788;2023-04-01T04:51:24;11.70;;;9.00;;
55633;SDS011;41504;53.162;6.788;2023-04-01T04:53:50;11.23;;;8.32;;
55633;SDS011;41504;53.162;6.788;2023-04-01T04:56:20;11.73;;;8.57;;
55633;SDS011;41504;53.162;6.788;2023-04-01T04:58:49;10.88;;;8.10;;
55633;SDS011;41504;53.162;6.788;2023-04-01T05:01:16;12.23;;;8.38;;
55633;SDS011;41504;53.162;6.788;2023-04-01T05:03:42;12.15;;;8.45;;
55633;SDS011;41504;53.162;6.788;2023-04-01T05:06:09;11.65;;;8.43;;
55633;SDS011;41504;53.162;6.788;2023-04-01T05:08:36;11.88;;;8.50;;
55633;SDS011;41504;53.162;6.788;2023-04-01T05:11:03;11.60;;;8.25;;
55633;SDS011;41504;53.162;6.788;2023-04-01T05:13:31;11.65;;;8.40;;
55633;SDS011;41504;53.162;6.788;2023-04-01T05:15:57;11.55;;;8.23;;
55633;SDS011;41504;53.162;6.788;2023-04-01T05:18:23;12.73;;;8.80;;
55633;SDS011;41504;53.162;6.788;2023-04-01T05:20:49;14.20;;;8.60;;
55633;SDS011;41504;53.162;6.788;2023-04-01T05:23:16;11.55;;;8.75;;
55633;SDS011;41504;53.162;6.788;2023-04-01T05:25:42;12.27;;;8.95;;
55633;SDS011;41504;53.162;6.788;2023-04-01T05:28:09;11.77;;;9.13;;
55633;SDS011;41504;53.162;6.788;2023-04-01T05:30:36;12.65;;;8.85;;
55633;SDS011;41504;53.162;6.788;2023-04-01T05:33:02;12.27;;;8.93;;
55633;SDS011;41504;53.162;6.788;2023-04-01T05:35:28;12.25;;;9.02;;
55633;SDS011;41504;53.162;6.788;2023-04-01T05:37:53;13.45;;;9.63;;
55633;SDS011;41504;53.162;6.788;2023-04-01T05:40:19;12.57;;;8.82;;
55633;SDS011;41504;53.162;6.788;2023-04-01T05:42:45;13.35;;;8.57;;
55633;SDS011;41504;53.162;6.788;2023-04-01T05:45:11;11.98;;;8.80;;
55633;SDS011;41504;53.162;6.788;2023-04-01T05:47:37;13.35;;;9.48;;
55633;SDS011;41504;53.162;6.788;2023-04-01T05:50:02;11.95;;;8.88;;
55633;SDS011;41504;53.162;6.788;2023-04-01T05:52:28;12.18;;;8.45;;
55633;SDS011;41504;53.162;6.788;2023-04-01T05:54:54;12.40;;;9.52;;
55633;SDS011;41504;53.162;6.788;2023-04-01T05:57:20;13.65;;;10.15;;
55633;SDS011;41504;53.162;6.788;2023-04-01T05:59:46;13.30;;;9.98;;
55633;SDS011;41504;53.162;6.788;2023-04-01T06:02:11;13.55;;;9.68;;
55633;SDS011;41504;53.162;6.788;2023-04-01T06:04:38;12.73;;;9.75;;
55633;SDS011;41504;53.162;6.788;2023-04-01T06:07:10;14.27;;;10.27;;
55633;SDS011;41504;53.162;6.788;2023-04-01T06:09:37;15.00;;;10.85;;
55633;SDS011;41504;53.162;6.788;2023-04-01T06:14:34;15.93;;;11.30;;
55633;SDS011;41504;53.162;6.788;2023-04-01T06:28:29;17.83;;;13.35;;
55633;SDS011;41504;53.162;6.788;2023-04-01T06:52:39;19.55;;;13.85;;
55633;SDS011;41504;53.162;6.788;2023-04-01T06:55:18;19.35;;;13.52;;
55633;SDS011;41504;53.162;6.788;2023-04-01T06:58:06;19.13;;;14.57;;
55633;SDS011;41504;53.162;6.788;2023-04-01T07:00:42;17.83;;;13.07;;
55633;SDS011;41504;53.162;6.788;2023-04-01T07:03:26;18.35;;;13.93;;
55633;SDS011;41504;53.162;6.788;2023-04-01T07:06:03;18.80;;;13.70;;
55633;SDS011;41504;53.162;6.788;2023-04-01T07:08:37;19.00;;;13.70;;
55633;SDS011;41504;53.162;6.788;2023-04-01T07:11:09;19.73;;;13.55;;
55633;SDS011;41504;53.162;6.788;2023-04-01T07:16:30;23.67;;;15.65;;
55633;SDS011;41504;53.162;6.788;2023-04-01T07:19:25;21.40;;;15.20;;
55633;SDS011;41504;53.162;6.788;2023-04-01T07:21:57;19.20;;;13.73;;
55633;SDS011;41504;53.162;6.788;2023-04-01T07:24:33;19.98;;;14.45;;
55633;SDS011;41504;53.162;6.788;2023-04-01T07:29:32;19.88;;;14.20;;
55633;SDS011;41504;53.162;6.788;2023-04-01T07:35:05;21.00;;;14.75;;
55633;SDS011;41504;53.162;6.788;2023-04-01T07:43:25;18.25;;;13.55;;
55633;SDS011;41504;53.162;6.788;2023-04-01T07:56:23;19.85;;;13.90;;
55633;SDS011;41504;53.162;6.788;2023-04-01T08:01:58;18.77;;;12.48;;
55633;SDS011;41504;53.162;6.788;2023-04-01T08:04:37;19.15;;;13.30;;
55633;SDS011;41504;53.162;6.788;2023-04-01T08:07:49;17.85;;;12.32;;
55633;SDS011;41504;53.162;6.788;2023-04-01T08:21:30;17.00;;;12.20;;
55633;SDS011;41504;53.162;6.788;2023-04-01T08:27:12;16.58;;;11.80;;
55633;SDS011;41504;53.162;6.788;2023-04-01T08:30:27;17.60;;;11.27;;
55633;SDS011;41504;53.162;6.788;2023-04-01T08:32:42;17.27;;;11.82;;
55633;SDS011;41504;53.162;6.788;2023-04-01T08:38:10;16.15;;;11.05;;
55633;SDS011;41504;53.162;6.788;2023-04-01T08:50:29;14.80;;;9.43;;
55633;SDS011;41504;53.162;6.788;2023-04-01T08:55:35;15.55;;;10.05;;
55633;SDS011;41504;53.162;6.788;2023-04-01T09:01:01;14.88;;;9.32;;
55633;SDS011;41504;53.162;6.788;2023-04-01T09:03:54;14.88;;;9.70;;
55633;SDS011;41504;53.162;6.788;2023-04-01T09:09:05;14.13;;;9.88;;
55633;SDS011;41504;53.162;6.788;2023-04-01T09:14:54;11.13;;;8.00;;
55633;SDS011;41504;53.162;6.788;2023-04-01T09:18:05;12.07;;;8.15;;
55633;SDS011;41504;53.162;6.788;2023-04-01T09:20:46;8.70;;;6.60;;
55633;SDS011;41504;53.162;6.788;2023-04-01T09:28:59;7.07;;;4.10;;
55633;SDS011;41504;53.162;6.788;2023-04-01T09:34:41;6.25;;;3.28;;
55633;SDS011;41504;53.162;6.788;2023-04-01T09:38:04;5.68;;;3.47;;
55633;SDS011;41504;53.162;6.788;2023-04-01T09:41:29;6.25;;;3.13;;
55633;SDS011;41504;53.162;6.788;2023-04-01T09:44:04;5.38;;;3.40;;
55633;SDS011;41504;53.162;6.788;2023-04-01T10:06:03;4.00;;;2.13;;
55633;SDS011;41504;53.162;6.788;2023-04-01T10:09:03;3.25;;;2.10;;
55633;SDS011;41504;53.162;6.788;2023-04-01T10:17:04;5.15;;;2.30;;
55633;SDS011;41504;53.162;6.788;2023-04-01T10:20:08;3.05;;;1.70;;
55633;SDS011;41504;53.162;6.788;2023-04-01T10:25:57;4.00;;;2.00;;
55633;SDS011;41504;53.162;6.788;2023-04-01T10:36:40;3.15;;;1.67;;
55633;SDS011;41504;53.162;6.788;2023-04-01T10:56:54;4.57;;;2.03;;
55633;SDS011;41504;53.162;6.788;2023-04-01T10:59:42;3.53;;;2.03;;
55633;SDS011;41504;53.162;6.788;2023-04-01T11:08:11;3.08;;;1.85;;
55633;SDS011;41504;53.162;6.788;2023-04-01T11:21:59;3.42;;;2.00;;
55633;SDS011;41504;53.162;6.788;2023-04-01T11:44:24;5.05;;;2.35;;
55633;SDS011;41504;53.162;6.788;2023-04-01T11:49:47;4.88;;;2.33;;
55633;SDS011;41504;53.162;6.788;2023-04-01T11:56:00;4.15;;;2.10;;
55633;SDS011;41504;53.162;6.788;2023-04-01T12:01:43;4.07;;;2.10;;
55633;SDS011;41504;53.162;6.788;2023-04-01T12:04:33;3.90;;;2.00;;
55633;SDS011;41504;53.162;6.788;2023-04-01T12:15:56;5.38;;;2.55;;
55633;SDS011;41504;53.162;6.788;2023-04-01T12:29:54;3.88;;;2.10;;
55633;SDS011;41504;53.162;6.788;2023-04-01T12:37:43;4.03;;;2.30;;
55633;SDS011;41504;53.162;6.788;2023-04-01T12:45:30;3.58;;;2.30;;
55633;SDS011;41504;53.162;6.788;2023-04-01T12:57:06;3.85;;;2.10;;
55633;SDS011;41504;53.162;6.788;2023-04-01T13:02:58;3.70;;;2.10;;
55633;SDS011;41504;53.162;6.788;2023-04-01T13:14:21;3.42;;;2.13;;
55633;SDS011;41504;53.162;6.788;2023-04-01T13:19:55;3.17;;;2.00;;
55633;SDS011;41504;53.162;6.788;2023-04-01T13:22:38;4.10;;;2.00;;
55633;SDS011;41504;53.162;6.788;2023-04-01T13:25:33;3.40;;;2.00;;
55633;SDS011;41504;53.162;6.788;2023-04-01T13:31:11;3.45;;;2.10;;
55633;SDS011;41504;53.162;6.788;2023-04-01T13:44:33;2.60;;;1.63;;
55633;SDS011;41504;53.162;6.788;2023-04-01T13:50:00;3.20;;;2.00;;
55633;SDS011;41504;53.162;6.788;2023-04-01T13:55:20;2.75;;;1.80;;
55633;SDS011;41504;53.162;6.788;2023-04-01T14:06:26;3.88;;;1.95;;
55633;SDS011;41504;53.162;6.788;2023-04-01T14:09:01;3.42;;;1.90;;
55633;SDS011;41504;53.162;6.788;2023-04-01T14:20:22;6.68;;;1.80;;
55633;SDS011;41504;53.162;6.788;2023-04-01T14:23:23;4.10;;;2.00;;
55633;SDS011;41504;53.162;6.788;2023-04-01T14:51:18;3.60;;;1.60;;
55633;SDS011;41504;53.162;6.788;2023-04-01T14:56:48;3.88;;;1.95;;
55633;SDS011;41504;53.162;6.788;2023-04-01T15:02:08;3.33;;;2.10;;
55633;SDS011;41504;53.162;6.788;2023-04-01T15:05:05;3.80;;;1.92;;
55633;SDS011;41504;53.162;6.788;2023-04-01T15:14:18;4.15;;;2.22;;
55633;SDS011;41504;53.162;6.788;2023-04-01T15:16:41;4.45;;;2.20;;
55633;SDS011;41504;53.162;6.788;2023-04-01T15:19:23;4.50;;;2.15;;
55633;SDS011;41504;53.162;6.788;2023-04-01T15:24:58;5.28;;;2.40;;
55633;SDS011;41504;53.162;6.788;2023-04-01T15:27:42;5.03;;;2.85;;
55633;SDS011;41504;53.162;6.788;2023-04-01T15:30:47;5.32;;;2.50;;
55633;SDS011;41504;53.162;6.788;2023-04-01T15:36:22;6.55;;;3.05;;
55633;SDS011;41504;53.162;6.788;2023-04-01T15:39:03;5.65;;;2.70;;
55633;SDS011;41504;53.162;6.788;2023-04-01T15:46:56;5.57;;;2.88;;
55633;SDS011;41504;53.162;6.788;2023-04-01T15:49:34;5.53;;;3.03;;
55633;SDS011;41504;53.162;6.788;2023-04-01T15:52:19;6.55;;;3.20;;
55633;SDS011;41504;53.162;6.788;2023-04-01T15:58:17;5.65;;;3.10;;
55633;SDS011;41504;53.162;6.788;2023-04-01T16:01:22;6.85;;;3.35;;
55633;SDS011;41504;53.162;6.788;2023-04-01T16:06:57;6.68;;;3.67;;
55633;SDS011;41504;53.162;6.788;2023-04-01T16:12:37;6.97;;;4.07;;
55633;SDS011;41504;53.162;6.788;2023-04-01T16:20:53;7.30;;;4.00;;
55633;SDS011;41504;53.162;6.788;2023-04-01T16:23:29;8.13;;;4.38;;
55633;SDS011;41504;53.162;6.788;2023-04-01T16:26:19;8.63;;;4.25;;
55633;SDS011;41504;53.162;6.788;2023-04-01T16:37:11;7.88;;;4.43;;
55633;SDS011;41504;53.162;6.788;2023-04-01T16:42:51;8.88;;;4.63;;
55633;SDS011;41504;53.162;6.788;2023-04-01T16:48:01;7.68;;;4.60;;
55633;SDS011;41504;53.162;6.788;2023-04-01T16:50:48;9.90;;;5.32;;
55633;SDS011;41504;53.162;6.788;2023-04-01T16:53:19;8.55;;;4.70;;
55633;SDS011;41504;53.162;6.788;2023-04-01T16:55:57;8.27;;;5.15;;
55633;SDS011;41504;53.162;6.788;2023-04-01T16:58:56;7.60;;;4.30;;
55633;SDS011;41504;53.162;6.788;2023-04-01T17:04:36;8.60;;;4.38;;
55633;SDS011;41504;53.162;6.788;2023-04-01T17:16:24;8.05;;;5.13;;
55633;SDS011;41504;53.162;6.788;2023-04-01T17:33:39;7.53;;;4.00;;
55633;SDS011;41504;53.162;6.788;2023-04-01T17:39:07;8.52;;;3.67;;
55633;SDS011;41504;53.162;6.788;2023-04-01T17:44:52;7.47;;;4.40;;
55633;SDS011;41504;53.162;6.788;2023-04-01T17:47:25;7.15;;;3.92;;
55633;SDS011;41504;53.162;6.788;2023-04-01T17:50:09;7.95;;;4.20;;
55633;SDS011;41504;53.162;6.788;2023-04-01T17:52:50;8.20;;;4.40;;
55633;SDS011;41504;53.162;6.788;2023-04-01T17:55:35;6.88;;;3.88;;
55633;SDS011;41504;53.162;6.788;2023-04-01T17:58:40;6.72;;;3.97;;
55633;SDS011;41504;53.162;6.788;2023-04-01T18:06:59;9.95;;;5.05;;
55633;SDS011;41504;53.162;6.788;2023-04-01T18:25:55;8.95;;;4.82;;
55633;SDS011;41504;53.162;6.788;2023-04-01T18:28:44;11.82;;;5.20;;
55633;SDS011;41504;53.162;6.788;2023-04-01T18:31:20;9.75;;;5.03;;
55633;SDS011;41504;53.162;6.788;2023-04-01T18:33:54;8.90;;;4.63;;
55633;SDS011;41504;53.162;6.788;2023-04-01T18:36:35;8.25;;;4.80;;
55633;SDS011;41504;53.162;6.788;2023-04-01T18:39:08;8.93;;;4.97;;
55633;SDS011;41504;53.162;6.788;2023-04-01T18:44:25;11.25;;;5.50;;
55633;SDS011;41504;53.162;6.788;2023-04-01T18:52:43;11.80;;;5.88;;
55633;SDS011;41504;53.162;6.788;2023-04-01T18:57:52;8.90;;;5.07;;
55633;SDS011;41504;53.162;6.788;2023-04-01T19:00:49;11.13;;;6.18;;
55633;SDS011;41504;53.162;6.788;2023-04-01T19:03:40;10.80;;;5.60;;
55633;SDS011;41504;53.162;6.788;2023-04-01T19:06:30;11.75;;;5.47;;
55633;SDS011;41504;53.162;6.788;2023-04-01T19:09:08;10.10;;;5.97;;
55633;SDS011;41504;53.162;6.788;2023-04-01T19:12:07;13.80;;;6.10;;
55633;SDS011;41504;53.162;6.788;2023-04-01T19:20:31;8.88;;;5.28;;
55633;SDS011;41504;53.162;6.788;2023-04-01T19:23:07;11.52;;;6.28;;
55633;SDS011;41504;53.162;6.788;2023-04-01T19:28:23;12.20;;;5.90;;
55633;SDS011;41504;53.162;6.788;2023-04-01T19:31:08;12.43;;;6.30;;
55633;SDS011;41504;53.162;6.788;2023-04-01T19:36:38;11.38;;;5.90;;
55633;SDS011;41504;53.162;6.788;2023-04-01T19:45:02;10.75;;;5.95;;
55633;SDS011;41504;53.162;6.788;2023-04-01T19:50:21;8.38;;;5.45;;
55633;SDS011;41504;53.162;6.788;2023-04-01T19:53:05;11.40;;;5.47;;
55633;SDS011;41504;53.162;6.788;2023-04-01T19:56:07;10.23;;;5.75;;
55633;SDS011;41504;53.162;6.788;2023-04-01T20:02:03;10.90;;;5.72;;
55633;SDS011;41504;53.162;6.788;2023-04-01T20:07:13;11.98;;;5.75;;
55633;SDS011;41504;53.162;6.788;2023-04-01T20:09:53;9.23;;;5.05;;
55633;SDS011;41504;53.162;6.788;2023-04-01T20:15:07;9.43;;;4.75;;
55633;SDS011;41504;53.162;6.788;2023-04-01T20:18:01;9.95;;;4.57;;
55633;SDS011;41504;53.162;6.788;2023-04-01T20:20:31;10.57;;;5.55;;
55633;SDS011;41504;53.162;6.788;2023-04-01T20:25:40;8.43;;;4.63;;
55633;SDS011;41504;53.162;6.788;2023-04-01T20:28:48;10.40;;;4.45;;
55633;SDS011;41504;53.162;6.788;2023-04-01T20:31:27;10.60;;;4.88;;
55633;SDS011;41504;53.162;6.788;2023-04-01T20:34:15;9.38;;;4.57;;
55633;SDS011;41504;53.162;6.788;2023-04-01T20:39:48;8.48;;;4.80;;
55633;SDS011;41504;53.162;6.788;2023-04-01T20:44:59;8.38;;;4.47;;
55633;SDS011;41504;53.162;6.788;2023-04-01T20:53:05;10.63;;;4.53;;
55633;SDS011;41504;53.162;6.788;2023-04-01T20:58:37;8.87;;;4.73;;
55633;SDS011;41504;53.162;6.788;2023-04-01T21:03:47;8.07;;;4.10;;
55633;SDS011;41504;53.162;6.788;2023-04-01T21:06:38;9.38;;;3.95;;
55633;SDS011;41504;53.162;6.788;2023-04-01T21:15:12;10.20;;;4.47;;
55633;SDS011;41504;53.162;6.788;2023-04-01T21:29:30;9.55;;;4.30;;
55633;SDS011;41504;53.162;6.788;2023-04-01T21:35:07;7.85;;;4.43;;
55633;SDS011;41504;53.162;6.788;2023-04-01T22:00:32;8.60;;;4.60;;
55633;SDS011;41504;53.162;6.788;2023-04-01T22:08:31;9.32;;;4.32;;
55633;SDS011;41504;53.162;6.788;2023-04-01T22:11:23;9.60;;;3.90;;
55633;SDS011;41504;53.162;6.788;2023-04-01T22:14:11;8.80;;;3.42;;
55633;SDS011;41504;53.162;6.788;2023-04-01T22:19:12;10.27;;;3.90;;
55633;SDS011;41504;53.162;6.788;2023-04-01T22:21:54;7.22;;;3.63;;
55633;SDS011;41504;53.162;6.788;2023-04-01T22:27:31;11.05;;;3.97;;
55633;SDS011;41504;53.162;6.788;2023-04-01T22:30:23;9.05;;;3.72;;
55633;SDS011;41504;53.162;6.788;2023-04-01T22:44:46;7.35;;;3.40;;
55633;SDS011;41504;53.162;6.788;2023-04-01T22:47:55;7.72;;;4.15;;
55633;SDS011;41504;53.162;6.788;2023-04-01T22:56:04;7.85;;;3.72;;
55633;SDS011;41504;53.162;6.788;2023-04-01T22:58:35;9.68;;;4.30;;
55633;SDS011;41504;53.162;6.788;2023-04-01T23:01:07;9.25;;;4.20;;
55633;SDS011;41504;53.162;6.788;2023-04-01T23:03:39;7.18;;;3.85;;
55633;SDS011;41504;53.162;6.788;2023-04-01T23:06:08;8.75;;;4.32;;
55633;SDS011;41504;53.162;6.788;2023-04-01T23:08:59;10.43;;;3.83;;
55633;SDS011;41504;53.162;6.788;2023-04-01T23:17:09;9.23;;;4.30;;
55633;SDS011;41504;53.162;6.788;2023-04-01T23:24:49;11.98;;;5.60;;
55633;SDS011;41504;53.162;6.788;2023-04-01T23:27:48;7.78;;;3.10;;
55633;SDS011;41504;53.162;6.788;2023-04-01T23:35:50;8.30;;;3.28;;
55633;SDS011;41504;53.162;6.788;2023-04-01T23:38:18;7.13;;;3.17;;
55633;SDS011;41504;53.162;6.788;2023-04-01T23:40:47;10.25;;;3.25;;
55633;SDS011;41504;53.162;6.788;2023-04-01T23:43:36;7.25;;;3.38;;
55633;SDS011;41504;53.162;6.788;2023-04-01T23:46:03;7.25;;;2.95;;
55633;SDS011;41504;53.162;6.788;2023-04-01T23:48:36;8.23;;;3.35;;
55633;SDS011;41504;53.162;6.788;2023-04-01T23:56:40;7.97;;;3.30;;
55633;SDS011;41504;53.162;6.788;2023-04-01T23:59:42;7.00;;;3.10;;
